createdAt,value
2022-12-11T00:00:59.084Z,13.55
2022-12-11T00:03:28.845Z,13.63
2022-12-11T00:05:57.048Z,13.50
2022-12-11T00:08:25.339Z,13.44
2022-12-11T00:10:53.617Z,13.44
2022-12-11T00:13:22.109Z,13.22
2022-12-11T00:15:50.278Z,13.06
2022-12-11T00:18:19.009Z,13.02
2022-12-11T00:20:48.523Z,13.00
2022-12-11T00:23:16.854Z,12.91
2022-12-11T00:25:46.337Z,12.83
2022-12-11T00:28:16.930Z,12.78
2022-12-11T00:30:45.059Z,12.74
2022-12-11T00:33:14.893Z,12.78
2022-12-11T00:35:44.994Z,12.58
2022-12-11T00:38:18.787Z,12.64
2022-12-11T00:40:47.072Z,12.69
2022-12-11T00:43:16.042Z,12.80
2022-12-11T00:45:46.698Z,12.78
2022-12-11T00:48:15.184Z,12.83
2022-12-11T00:50:43.799Z,12.79
2022-12-11T00:53:12.144Z,12.71
2022-12-11T00:55:43.490Z,12.61
2022-12-11T00:58:12.838Z,12.52
2022-12-11T01:00:41.896Z,12.53
2022-12-11T01:03:10.213Z,12.52
2022-12-11T01:05:38.358Z,12.48
2022-12-11T01:08:06.766Z,12.45
2022-12-11T01:10:34.333Z,12.40
2022-12-11T01:13:07.840Z,12.33
2022-12-11T01:15:41.792Z,12.36
2022-12-11T01:18:10.874Z,12.34
2022-12-11T01:20:40.507Z,12.35
2022-12-11T01:23:09.045Z,12.27
2022-12-11T01:25:39.358Z,12.28
2022-12-11T01:28:09.523Z,12.26
2022-12-11T01:30:38.361Z,12.22
2022-12-11T01:33:06.505Z,12.29
2022-12-11T01:35:34.690Z,12.28
2022-12-11T01:38:03.431Z,12.23
2022-12-11T01:40:31.657Z,12.21
2022-12-11T01:42:59.880Z,12.25
2022-12-11T01:45:38.907Z,12.27
2022-12-11T01:48:12.206Z,12.26
2022-12-11T01:50:44.708Z,12.20
2022-12-11T01:53:19.122Z,12.20
2022-12-11T01:55:49.748Z,12.17
2022-12-11T01:58:19.694Z,12.15
2022-12-11T02:00:49.441Z,12.08
2022-12-11T02:03:17.851Z,12.14
2022-12-11T02:05:46.338Z,12.15
2022-12-11T02:08:15.224Z,12.12
2022-12-11T02:11:06.829Z,12.07
2022-12-11T02:13:43.430Z,12.10
2022-12-11T02:16:21.389Z,12.07
2022-12-11T02:18:57.603Z,12.08
2022-12-11T02:21:29.315Z,12.03
2022-12-11T02:24:16.165Z,11.96
2022-12-11T02:27:03.374Z,11.87
2022-12-11T02:29:38.381Z,11.86
2022-12-11T02:32:12.559Z,11.85
2022-12-11T02:34:46.218Z,11.89
2022-12-11T02:37:19.963Z,11.96
2022-12-11T02:39:50.231Z,11.97
2022-12-11T02:42:21.840Z,11.95
2022-12-11T02:44:53.044Z,11.96
2022-12-11T02:47:22.703Z,11.99
2022-12-11T02:49:52.470Z,12.00
2022-12-11T02:52:24.692Z,12.04
2022-12-11T02:54:55.528Z,12.01
2022-12-11T02:57:29.753Z,12.06
2022-12-11T02:59:59.338Z,12.06
2022-12-11T03:02:28.128Z,12.07
2022-12-11T03:04:57.769Z,11.98
2022-12-11T03:07:29.003Z,11.95
2022-12-11T03:09:57.284Z,12.00
2022-12-11T03:12:29.483Z,11.98
2022-12-11T03:15:01.024Z,11.99
2022-12-11T03:17:33.910Z,11.91
2022-12-11T03:20:08.616Z,11.89
2022-12-11T03:22:42.910Z,11.85
2022-12-11T03:25:16.334Z,11.84
2022-12-11T03:27:49.513Z,11.89
2022-12-11T03:30:21.979Z,11.92
2022-12-11T03:32:54.417Z,11.93
2022-12-11T03:35:27.889Z,11.93
2022-12-11T03:37:58.367Z,11.94
2022-12-11T03:40:29.169Z,11.92
2022-12-11T03:42:58.919Z,11.90
2022-12-11T03:45:30.088Z,11.87
2022-12-11T03:48:00.975Z,11.91
2022-12-11T03:50:32.571Z,11.91
2022-12-11T03:53:03.018Z,11.96
2022-12-11T03:55:34.117Z,11.97
2022-12-11T03:58:02.569Z,12.07
2022-12-11T04:00:32.231Z,12.25
2022-12-11T04:03:16.596Z,12.21
2022-12-11T04:05:47.552Z,12.15
2022-12-11T04:08:17.022Z,12.30
2022-12-11T04:10:45.493Z,12.28
2022-12-11T04:13:14.340Z,12.25
2022-12-11T04:15:43.083Z,12.21
2022-12-11T04:18:29.027Z,12.18
2022-12-11T04:21:15.302Z,12.19
2022-12-11T04:24:00.998Z,12.07
2022-12-11T04:26:29.362Z,12.01
2022-12-11T04:28:57.502Z,11.96
2022-12-11T04:31:27.186Z,11.94
2022-12-11T04:33:55.359Z,11.94
2022-12-11T04:36:23.942Z,11.97
2022-12-11T04:38:52.087Z,12.01
2022-12-11T04:41:20.419Z,12.07
2022-12-11T04:43:48.515Z,12.09
2022-12-11T04:46:19.126Z,12.09
2022-12-11T04:48:55.415Z,12.14
2022-12-11T04:51:24.326Z,12.16
2022-12-11T04:53:52.514Z,12.18
2022-12-11T04:56:20.837Z,12.22
2022-12-11T04:58:49.532Z,12.20
2022-12-11T05:01:19.870Z,12.28
2022-12-11T05:03:49.681Z,12.30
2022-12-11T05:06:17.947Z,12.34
2022-12-11T05:08:46.418Z,12.29
2022-12-11T05:11:16.291Z,12.25
2022-12-11T05:13:45.486Z,12.32
2022-12-11T05:16:16.871Z,12.63
2022-12-11T05:18:45.619Z,12.87
2022-12-11T05:21:16.825Z,13.17
2022-12-11T05:23:45.056Z,13.26
2022-12-11T05:26:15.403Z,13.46
2022-12-11T05:28:44.369Z,13.75
2022-12-11T05:31:17.257Z,14.06
2022-12-11T05:33:46.366Z,14.49
2022-12-11T05:36:18.393Z,14.83
2022-12-11T05:38:47.350Z,15.15
2022-12-11T05:41:17.480Z,15.35
2022-12-11T05:43:46.390Z,15.34
2022-12-11T05:46:17.023Z,15.32
2022-12-11T05:48:47.674Z,15.49
2022-12-11T05:51:18.011Z,15.68
2022-12-11T05:53:47.810Z,15.82
2022-12-11T05:56:18.159Z,15.84
2022-12-11T05:58:47.058Z,16.07
2022-12-11T06:01:18.124Z,16.12
2022-12-11T06:03:46.242Z,16.03
2022-12-11T06:06:16.412Z,16.09
2022-12-11T06:08:44.631Z,16.04
2022-12-11T06:11:17.280Z,16.00
2022-12-11T06:13:48.081Z,15.89
2022-12-11T06:16:16.728Z,15.92
2022-12-11T06:18:46.354Z,15.86
2022-12-11T06:21:17.563Z,15.85
2022-12-11T06:23:46.918Z,15.84
2022-12-11T06:26:16.613Z,15.80
2022-12-11T06:28:45.295Z,15.76
2022-12-11T06:31:14.281Z,15.74
2022-12-11T06:33:44.630Z,15.70
2022-12-11T06:36:15.759Z,15.80
2022-12-11T06:38:46.099Z,15.74
2022-12-11T06:41:15.365Z,15.82
2022-12-11T06:43:44.452Z,15.86
2022-12-11T06:46:15.213Z,15.90
2022-12-11T06:48:44.751Z,15.93
2022-12-11T06:51:15.515Z,15.98
2022-12-11T06:53:45.579Z,15.93
2022-12-11T06:56:16.138Z,16.00
2022-12-11T06:58:45.164Z,16.01
2022-12-11T07:01:19.100Z,16.08
2022-12-11T07:03:47.870Z,16.04
2022-12-11T07:06:17.117Z,16.15
2022-12-11T07:08:46.923Z,16.17
2022-12-11T07:11:16.966Z,16.23
2022-12-11T07:13:45.960Z,16.23
2022-12-11T07:16:16.567Z,16.32
2022-12-11T07:18:48.538Z,16.35
2022-12-11T07:21:16.980Z,16.40
2022-12-11T07:23:46.784Z,16.40
2022-12-11T07:26:17.184Z,16.30
2022-12-11T07:28:45.824Z,16.21
2022-12-11T07:31:16.451Z,16.22
2022-12-11T07:33:45.344Z,16.23
2022-12-11T07:36:15.544Z,16.35
2022-12-11T07:38:43.709Z,16.37
2022-12-11T07:41:14.884Z,16.38
2022-12-11T07:43:44.195Z,16.40
2022-12-11T07:46:14.294Z,16.34
2022-12-11T07:48:44.417Z,16.35
2022-12-11T07:51:16.179Z,16.42
2022-12-11T07:53:44.494Z,16.52
2022-12-11T07:56:14.615Z,16.60
2022-12-11T07:58:43.103Z,16.59
2022-12-11T08:01:13.084Z,16.58
2022-12-11T08:03:42.319Z,16.68
2022-12-11T08:06:11.087Z,16.71
2022-12-11T08:08:39.252Z,16.64
2022-12-11T08:11:09.182Z,16.56
2022-12-11T08:13:39.175Z,16.53
2022-12-11T08:16:09.362Z,16.52
2022-12-11T08:18:38.845Z,16.49
2022-12-11T08:21:08.303Z,16.44
2022-12-11T08:23:36.678Z,16.43
2022-12-11T08:26:06.293Z,16.36
2022-12-11T08:28:34.900Z,16.34
2022-12-11T08:31:08.280Z,16.28
2022-12-11T08:33:37.556Z,16.35
2022-12-11T08:36:07.229Z,16.37
2022-12-11T08:38:35.811Z,16.34
2022-12-11T08:41:09.837Z,16.38
2022-12-11T08:43:38.480Z,16.41
2022-12-11T08:46:08.829Z,16.59
2022-12-11T08:48:38.533Z,16.57
2022-12-11T08:51:08.880Z,16.50
2022-12-11T08:53:37.028Z,16.59
2022-12-11T08:56:06.766Z,16.70
2022-12-11T08:58:36.114Z,16.61
2022-12-11T09:01:10.211Z,16.66
2022-12-11T09:03:40.031Z,16.72
2022-12-11T09:06:10.008Z,16.82
2022-12-11T09:08:38.339Z,16.83
2022-12-11T09:11:07.644Z,16.94
2022-12-11T09:13:36.056Z,16.91
2022-12-11T09:16:06.037Z,16.97
2022-12-11T09:18:35.691Z,16.91
2022-12-11T09:21:06.035Z,16.93
2022-12-11T09:23:34.630Z,16.99
2022-12-11T09:26:05.913Z,17.03
2022-12-11T09:28:34.863Z,17.16
2022-12-11T09:31:03.192Z,17.05
2022-12-11T09:33:31.323Z,16.98
2022-12-11T09:36:01.478Z,17.03
2022-12-11T09:38:30.321Z,17.02
2022-12-11T09:40:58.646Z,17.07
2022-12-11T09:43:39.314Z,17.02
2022-12-11T09:46:12.017Z,17.05
2022-12-11T09:48:43.299Z,16.94
2022-12-11T09:51:23.288Z,17.04
2022-12-11T09:53:52.878Z,17.11
2022-12-11T09:56:27.091Z,17.14
2022-12-11T09:59:03.748Z,17.23
2022-12-11T10:01:43.814Z,17.42
2022-12-11T10:04:26.279Z,17.26
2022-12-11T10:07:05.598Z,17.01
2022-12-11T10:09:40.960Z,16.91
2022-12-11T10:12:24.301Z,16.95
2022-12-11T10:15:06.519Z,16.82
2022-12-11T10:17:43.316Z,16.83
2022-12-11T10:20:20.877Z,16.99
2022-12-11T10:22:51.701Z,16.91
2022-12-11T10:25:22.905Z,16.81
2022-12-11T10:27:51.240Z,16.38
2022-12-11T10:30:21.477Z,16.36
2022-12-11T10:32:55.689Z,16.18
2022-12-11T10:35:37.281Z,15.93
2022-12-11T10:38:16.345Z,15.93
2022-12-11T10:40:46.544Z,15.67
2022-12-11T10:43:15.143Z,15.50
2022-12-11T10:45:53.044Z,15.42
2022-12-11T10:48:22.159Z,15.27
2022-12-11T10:51:01.412Z,15.07
2022-12-11T10:53:32.686Z,14.98
2022-12-11T10:56:01.398Z,14.64
2022-12-11T10:58:34.403Z,14.36
2022-12-11T11:01:09.898Z,14.29
2022-12-11T11:03:45.629Z,14.13
2022-12-11T11:06:18.256Z,14.03
2022-12-11T11:08:49.584Z,14.02
2022-12-11T11:11:30.068Z,13.97
2022-12-11T11:14:16.646Z,13.99
2022-12-11T11:16:47.006Z,14.05
2022-12-11T11:19:27.232Z,13.79
2022-12-11T11:21:59.674Z,13.88
2022-12-11T11:24:34.811Z,13.98
2022-12-11T11:27:19.038Z,13.93
2022-12-11T11:29:51.658Z,13.90
2022-12-11T11:32:25.185Z,14.04
2022-12-11T11:34:53.535Z,14.04
2022-12-11T11:37:32.164Z,14.15
2022-12-11T11:40:12.457Z,14.11
2022-12-11T11:43:08.417Z,14.15
2022-12-11T11:45:42.156Z,14.01
2022-12-11T11:48:27.494Z,14.02
2022-12-11T11:50:57.420Z,13.97
2022-12-11T11:53:33.194Z,14.14
2022-12-11T11:56:16.623Z,13.96
2022-12-11T11:58:49.008Z,13.92
2022-12-11T12:01:20.190Z,13.86
2022-12-11T12:03:50.256Z,13.86
2022-12-11T12:06:30.234Z,13.73
2022-12-11T12:09:11.403Z,13.86
2022-12-11T12:11:48.107Z,13.81
2022-12-11T12:14:50.990Z,13.82
2022-12-11T12:17:22.624Z,13.87
2022-12-11T12:20:01.088Z,13.87
2022-12-11T12:22:46.124Z,13.75
2022-12-11T12:25:20.050Z,13.85
2022-12-11T12:27:59.274Z,13.72
2022-12-11T12:30:33.004Z,13.66
2022-12-11T12:33:15.186Z,13.89
2022-12-11T12:35:51.905Z,13.80
2022-12-11T12:38:24.911Z,13.89
2022-12-11T12:41:04.958Z,13.93
2022-12-11T12:43:54.428Z,13.95
2022-12-11T12:46:35.450Z,13.97
2022-12-11T12:49:05.562Z,13.89
2022-12-11T12:51:33.935Z,13.89
2022-12-11T12:54:11.960Z,13.86
2022-12-11T12:56:43.754Z,13.77
2022-12-11T12:59:24.092Z,13.82
2022-12-11T13:01:57.178Z,13.72
2022-12-11T13:04:58.169Z,13.67
2022-12-11T13:07:30.892Z,13.69
2022-12-11T13:10:06.684Z,13.69
2022-12-11T13:12:43.380Z,13.59
2022-12-11T13:15:40.802Z,13.61
2022-12-11T13:18:34.882Z,13.52
2022-12-11T13:21:03.437Z,13.52
2022-12-11T13:23:33.930Z,13.37
2022-12-11T13:26:03.553Z,13.45
2022-12-11T13:28:35.072Z,13.52
2022-12-11T13:31:08.612Z,13.70
2022-12-11T13:33:43.721Z,13.52
2022-12-11T13:36:28.593Z,13.58
2022-12-11T13:39:00.548Z,13.52
2022-12-11T13:41:29.948Z,13.43
2022-12-11T13:43:59.202Z,13.39
2022-12-11T13:46:32.473Z,13.25
2022-12-11T13:49:03.602Z,13.17
2022-12-11T13:51:35.143Z,13.18
2022-12-11T13:54:17.330Z,13.11
2022-12-11T13:57:02.738Z,13.08
2022-12-11T13:59:34.309Z,12.91
2022-12-11T14:02:12.130Z,13.00
2022-12-11T14:04:40.934Z,12.86
2022-12-11T14:07:11.052Z,12.88
2022-12-11T14:09:43.642Z,12.85
2022-12-11T14:12:21.957Z,12.94
2022-12-11T14:14:54.572Z,12.80
2022-12-11T14:17:26.710Z,12.69
2022-12-11T14:19:57.194Z,12.69
2022-12-11T14:22:28.077Z,12.59
2022-12-11T14:24:58.184Z,12.55
2022-12-11T14:27:28.150Z,12.50
2022-12-11T14:29:57.095Z,12.47
2022-12-11T14:32:33.974Z,12.53
2022-12-11T14:35:06.042Z,12.52
2022-12-11T14:37:37.200Z,12.59
2022-12-11T14:40:10.087Z,12.55
2022-12-11T14:42:42.547Z,12.55
2022-12-11T14:45:20.568Z,12.58
2022-12-11T14:47:52.771Z,12.65
2022-12-11T14:50:24.118Z,12.70
2022-12-11T14:52:56.941Z,12.68
2022-12-11T14:55:28.503Z,12.55
2022-12-11T14:57:59.110Z,12.47
2022-12-11T15:00:29.377Z,12.37
2022-12-11T15:03:04.532Z,12.30
2022-12-11T15:05:40.408Z,12.29
2022-12-11T15:08:24.933Z,12.17
2022-12-11T15:11:16.136Z,12.14
2022-12-11T15:13:53.671Z,12.07
2022-12-11T15:16:24.056Z,12.04
2022-12-11T15:18:56.660Z,12.04
2022-12-11T15:21:31.098Z,11.98
2022-12-11T15:24:01.881Z,11.92
2022-12-11T15:26:38.808Z,11.87
2022-12-11T15:29:24.248Z,11.82
2022-12-11T15:32:01.673Z,11.82
2022-12-11T15:34:36.383Z,11.84
2022-12-11T15:37:04.540Z,11.86
2022-12-11T15:39:32.687Z,11.86
2022-12-11T15:42:08.274Z,11.87
2022-12-11T15:44:36.405Z,11.79
2022-12-11T15:47:13.429Z,11.87
2022-12-11T15:49:43.056Z,11.91
2022-12-11T15:52:11.440Z,11.90
2022-12-11T15:54:39.615Z,11.88
2022-12-11T15:57:14.777Z,11.96
2022-12-11T15:59:42.963Z,11.88
2022-12-11T16:02:13.492Z,11.98
2022-12-11T16:04:43.160Z,12.16
2022-12-11T16:07:17.806Z,12.23
2022-12-11T16:09:46.208Z,12.32
2022-12-11T16:12:15.262Z,12.48
2022-12-11T16:14:43.917Z,12.51
2022-12-11T16:17:13.356Z,12.49
2022-12-11T16:19:44.308Z,12.43
2022-12-11T16:22:14.242Z,12.38
2022-12-11T16:24:43.099Z,12.22
2022-12-11T16:27:11.445Z,12.17
2022-12-11T16:29:41.081Z,12.18
2022-12-11T16:32:10.695Z,12.36
2022-12-11T16:34:39.460Z,12.44
2022-12-11T16:37:10.710Z,12.44
2022-12-11T16:39:39.713Z,12.53
2022-12-11T16:42:08.247Z,12.71
2022-12-11T16:44:40.940Z,12.86
2022-12-11T16:47:12.048Z,13.07
2022-12-11T16:49:40.715Z,13.17
2022-12-11T16:52:10.806Z,13.30
2022-12-11T16:54:39.060Z,13.37
2022-12-11T16:57:07.258Z,13.52
2022-12-11T16:59:37.634Z,13.73
2022-12-11T17:02:06.692Z,13.89
2022-12-11T17:04:34.740Z,13.88
2022-12-11T17:07:02.871Z,13.97
2022-12-11T17:09:32.884Z,13.95
2022-12-11T17:12:01.152Z,13.89
2022-12-11T17:14:29.961Z,13.80
2022-12-11T17:16:58.406Z,13.88
2022-12-11T17:19:26.580Z,13.76
2022-12-11T17:21:56.066Z,13.72
2022-12-11T17:24:24.316Z,13.69
2022-12-11T17:26:55.868Z,13.64
2022-12-11T17:29:23.988Z,13.62
2022-12-11T17:31:52.822Z,13.58
2022-12-11T17:34:21.105Z,13.56
2022-12-11T17:36:49.255Z,13.47
2022-12-11T17:39:17.668Z,13.43
2022-12-11T17:41:46.002Z,13.41
2022-12-11T17:44:15.772Z,13.39
2022-12-11T17:46:43.975Z,13.40
2022-12-11T17:49:12.137Z,13.41
2022-12-11T17:51:40.452Z,13.49
2022-12-11T17:54:08.739Z,13.44
2022-12-11T17:56:37.291Z,13.49
2022-12-11T17:59:06.203Z,13.44
2022-12-11T18:01:35.813Z,13.48
2022-12-11T18:04:04.287Z,13.59
2022-12-11T18:06:32.904Z,13.72
2022-12-11T18:09:01.502Z,13.72
2022-12-11T18:11:29.740Z,13.80
2022-12-11T18:13:58.281Z,13.82
2022-12-11T18:16:28.712Z,13.88
2022-12-11T18:18:58.792Z,13.83
2022-12-11T18:21:29.068Z,13.86
2022-12-11T18:23:57.809Z,13.93
2022-12-11T18:26:26.675Z,13.86
2022-12-11T18:28:55.361Z,13.77
2022-12-11T18:31:25.212Z,13.58
2022-12-11T18:33:53.766Z,13.37
2022-12-11T18:36:23.509Z,13.25
2022-12-11T18:38:52.061Z,12.92
2022-12-11T18:41:21.407Z,12.82
2022-12-11T18:43:49.853Z,12.71
2022-12-11T18:46:20.400Z,12.59
2022-12-11T18:48:49.829Z,12.50
2022-12-11T18:51:20.264Z,12.45
2022-12-11T18:53:50.215Z,12.40
2022-12-11T18:56:20.176Z,12.45
2022-12-11T18:58:48.972Z,12.42
2022-12-11T19:01:20.014Z,12.47
2022-12-11T19:03:48.806Z,12.45
2022-12-11T19:06:19.002Z,12.48
2022-12-11T19:08:47.583Z,12.49
2022-12-11T19:11:19.148Z,12.60
2022-12-11T19:13:48.528Z,12.55
2022-12-11T19:16:18.871Z,12.57
2022-12-11T19:18:47.024Z,12.60
2022-12-11T19:21:17.666Z,12.66
2022-12-11T19:23:46.589Z,12.67
2022-12-11T19:26:18.521Z,12.56
2022-12-11T19:28:46.738Z,12.54
2022-12-11T19:31:18.930Z,12.61
2022-12-11T19:33:47.483Z,12.60
2022-12-11T19:36:17.542Z,12.63
2022-12-11T19:38:46.483Z,12.74
2022-12-11T19:41:18.061Z,12.81
2022-12-11T19:43:46.861Z,12.88
2022-12-11T19:46:16.020Z,12.77
2022-12-11T19:48:44.901Z,12.65
2022-12-11T19:51:15.122Z,12.41
2022-12-11T19:53:44.950Z,12.32
2022-12-11T19:56:14.160Z,12.41
2022-12-11T19:58:43.883Z,12.35
2022-12-11T20:01:19.722Z,12.17
2022-12-11T20:03:48.054Z,11.88
2022-12-11T20:06:16.183Z,11.63
2022-12-11T20:08:45.916Z,11.10
2022-12-11T20:11:18.700Z,10.93
2022-12-11T20:13:49.516Z,10.73
2022-12-11T20:16:28.902Z,10.53
2022-12-11T20:19:08.398Z,10.39
2022-12-11T20:21:36.681Z,10.42
2022-12-11T20:24:05.170Z,10.38
2022-12-11T20:26:36.049Z,10.38
2022-12-11T20:29:08.050Z,10.49
2022-12-11T20:31:37.868Z,10.33
2022-12-11T20:34:06.595Z,10.19
2022-12-11T20:36:35.620Z,10.10
2022-12-11T20:39:04.144Z,9.92
2022-12-11T20:41:32.449Z,9.69
2022-12-11T20:44:00.838Z,9.64
2022-12-11T20:46:30.595Z,9.68
2022-12-11T20:48:59.668Z,9.46
2022-12-11T20:51:29.205Z,9.40
2022-12-11T20:53:59.636Z,9.08
2022-12-11T20:56:29.739Z,9.14
2022-12-11T20:58:58.688Z,8.94
2022-12-11T21:01:29.165Z,8.79
2022-12-11T21:04:01.638Z,8.63
2022-12-11T21:06:32.566Z,8.33
2022-12-11T21:09:01.640Z,8.20
2022-12-11T21:11:29.868Z,8.15
2022-12-11T21:13:58.336Z,8.13
2022-12-11T21:16:27.543Z,8.32
2022-12-11T21:18:56.695Z,8.47
2022-12-11T21:21:27.175Z,8.50
2022-12-11T21:23:55.745Z,8.56
2022-12-11T21:26:24.190Z,8.54
2022-12-11T21:28:53.322Z,8.52
2022-12-11T21:31:22.039Z,8.39
2022-12-11T21:33:50.250Z,8.41
2022-12-11T21:36:18.836Z,8.27
2022-12-11T21:38:49.272Z,8.34
2022-12-11T21:41:20.415Z,8.40
2022-12-11T21:46:39.794Z,8.12
2022-12-11T21:49:08.464Z,8.18
2022-12-11T21:51:41.509Z,8.15
2022-12-11T21:54:20.733Z,8.03
2022-12-11T21:56:48.978Z,7.93
2022-12-11T21:59:17.198Z,7.80
2022-12-11T22:01:47.133Z,7.74
2022-12-11T22:04:16.814Z,7.64
2022-12-11T22:06:47.253Z,7.50
2022-12-11T22:09:18.087Z,7.44
2022-12-11T22:11:47.551Z,7.45
2022-12-11T22:14:18.386Z,7.24
2022-12-11T22:16:47.008Z,7.34
2022-12-11T22:19:15.437Z,7.27
2022-12-11T22:21:43.899Z,7.27
2022-12-11T22:24:12.025Z,7.02
2022-12-11T22:26:42.117Z,6.96
2022-12-11T22:29:10.296Z,6.71
2022-12-11T22:31:38.813Z,6.87
2022-12-11T22:34:10.570Z,7.01
2022-12-11T22:36:39.052Z,6.99
2022-12-11T22:39:07.487Z,6.97
2022-12-11T22:41:38.419Z,7.02
2022-12-11T22:44:08.008Z,6.96
2022-12-11T22:46:36.330Z,6.98
2022-12-11T22:49:05.703Z,6.74
2022-12-11T22:51:34.328Z,6.82
2022-12-11T22:54:02.632Z,6.87
2022-12-11T22:56:31.054Z,6.64
2022-12-11T22:58:59.951Z,6.68
2022-12-11T23:01:29.656Z,6.61
2022-12-11T23:03:58.160Z,6.68
2022-12-11T23:06:26.384Z,6.50
2022-12-11T23:08:59.878Z,6.71
2022-12-11T23:11:30.299Z,6.82
2022-12-11T23:13:59.098Z,6.89
2022-12-11T23:16:29.276Z,6.70
2022-12-11T23:18:58.209Z,6.72
2022-12-11T23:21:29.721Z,6.61
2022-12-11T23:23:59.112Z,6.64
2022-12-11T23:26:28.969Z,6.59
2022-12-11T23:28:58.415Z,6.63
2022-12-11T23:31:27.916Z,6.61
2022-12-11T23:33:58.415Z,6.61
2022-12-11T23:36:27.564Z,6.69
2022-12-11T23:38:56.406Z,6.78
2022-12-11T23:41:24.681Z,6.67
2022-12-11T23:43:53.099Z,6.67
2022-12-11T23:46:23.202Z,6.60
2022-12-11T23:48:52.780Z,6.56
2022-12-11T23:51:23.994Z,6.57
2022-12-11T23:53:53.522Z,6.57
2022-12-11T23:56:23.187Z,6.73
2022-12-11T23:58:51.988Z,6.53
